createdAt,value
2023-03-17T00:01:25.171Z,101313.63
2023-03-17T00:03:51.626Z,101307.66
2023-03-17T00:06:17.979Z,101297.91
2023-03-17T00:08:44.233Z,101300.22
2023-03-17T00:11:10.626Z,101301.25
2023-03-17T00:13:36.952Z,101289.88
2023-03-17T00:16:03.348Z,101299.16
2023-03-17T00:18:29.709Z,101301.25
2023-03-17T00:20:56.050Z,101285.34
2023-03-17T00:23:22.972Z,101285.53
2023-03-17T00:25:49.282Z,101276.88
2023-03-17T00:28:15.695Z,101285.34
2023-03-17T00:30:42.102Z,101277.91
2023-03-17T00:33:08.426Z,101280.81
2023-03-17T00:35:34.729Z,101280.00
2023-03-17T00:38:01.300Z,101284.13
2023-03-17T00:40:27.834Z,101282.50
2023-03-17T00:42:54.511Z,101284.53
2023-03-17T00:45:20.783Z,101272.16
2023-03-17T00:47:47.150Z,101268.03
2023-03-17T00:50:13.696Z,101259.16
2023-03-17T00:52:40.125Z,101252.97
2023-03-17T00:55:06.571Z,101257.72
2023-03-17T00:57:32.959Z,101254.22
2023-03-17T00:59:59.393Z,101242.84
2023-03-17T01:02:25.825Z,101235.00
2023-03-17T01:04:59.894Z,101245.53
2023-03-17T01:07:32.079Z,101244.94
2023-03-17T01:09:58.384Z,101242.66
2023-03-17T01:12:24.770Z,101247.00
2023-03-17T01:14:51.125Z,101236.47
2023-03-17T01:17:17.859Z,101235.03
2023-03-17T01:19:44.410Z,101232.75
2023-03-17T01:22:10.710Z,101225.53
2023-03-17T01:24:37.038Z,101213.56
2023-03-17T01:27:03.318Z,101202.00
2023-03-17T01:29:29.907Z,101197.66
2023-03-17T01:31:56.428Z,101189.81
2023-03-17T01:34:22.829Z,101184.69
2023-03-17T01:36:49.242Z,101175.19
2023-03-17T01:39:15.783Z,101182.84
2023-03-17T01:41:42.182Z,101182.22
2023-03-17T01:44:08.751Z,101183.03
2023-03-17T01:46:35.150Z,101174.81
2023-03-17T01:49:01.492Z,101179.31
2023-03-17T01:51:27.928Z,101185.34
2023-03-17T01:53:54.294Z,101190.06
2023-03-17T01:56:20.831Z,101194.19
2023-03-17T01:58:47.120Z,101180.19
2023-03-17T02:01:13.665Z,101183.47
2023-03-17T02:03:40.230Z,101175.66
2023-03-17T02:06:07.000Z,101173.00
2023-03-17T02:08:33.437Z,101168.44
2023-03-17T02:11:00.007Z,101155.66
2023-03-17T02:13:26.912Z,101148.88
2023-03-17T02:15:53.309Z,101142.25
2023-03-17T02:18:19.729Z,101138.13
2023-03-17T02:20:46.525Z,101142.25
2023-03-17T02:23:12.906Z,101138.34
2023-03-17T02:25:39.272Z,101138.16
2023-03-17T02:28:05.730Z,101137.91
2023-03-17T02:30:32.513Z,101145.56
2023-03-17T02:32:59.201Z,101133.38
2023-03-17T02:35:25.547Z,101129.84
2023-03-17T02:37:52.318Z,101132.97
2023-03-17T02:40:19.000Z,101142.25
2023-03-17T02:42:45.794Z,101126.38
2023-03-17T02:45:12.318Z,101115.84
2023-03-17T02:47:38.956Z,101115.84
2023-03-17T02:50:05.273Z,101115.41
2023-03-17T02:52:31.815Z,101118.53
2023-03-17T02:54:58.126Z,101124.28
2023-03-17T02:57:24.709Z,101119.56
2023-03-17T02:59:51.136Z,101125.13
2023-03-17T03:02:17.538Z,101121.22
2023-03-17T03:04:43.943Z,101122.84
2023-03-17T03:07:10.284Z,101114.41
2023-03-17T03:09:36.638Z,101108.44
2023-03-17T03:12:03.338Z,101104.72
2023-03-17T03:14:29.640Z,101103.47
2023-03-17T03:16:56.138Z,101108.03
2023-03-17T03:19:22.509Z,101108.81
2023-03-17T03:21:49.355Z,101111.94
2023-03-17T03:24:16.338Z,101114.19
2023-03-17T03:26:43.125Z,101110.31
2023-03-17T03:29:10.019Z,101107.19
2023-03-17T03:31:36.407Z,101107.19
2023-03-17T03:34:02.784Z,101112.75
2023-03-17T03:36:29.300Z,101111.09
2023-03-17T03:38:55.621Z,101115.44
2023-03-17T03:41:22.007Z,101115.84
2023-03-17T03:43:49.198Z,101116.47
2023-03-17T03:46:15.808Z,101114.19
2023-03-17T03:48:42.216Z,101120.78
2023-03-17T03:51:09.213Z,101117.28
2023-03-17T03:53:35.561Z,101110.25
2023-03-17T03:56:01.904Z,101113.78
2023-03-17T03:58:28.577Z,101112.94
2023-03-17T04:00:54.947Z,101104.31
2023-03-17T04:03:21.923Z,101100.59
2023-03-17T04:05:48.295Z,101106.97
2023-03-17T04:08:14.812Z,101106.97
2023-03-17T04:10:41.232Z,101110.50
2023-03-17T04:13:07.619Z,101108.41
2023-03-17T04:15:33.919Z,101110.91
2023-03-17T04:18:00.277Z,101111.09
2023-03-17T04:20:27.165Z,101115.84
2023-03-17T04:22:53.667Z,101110.25
2023-03-17T04:25:20.203Z,101119.34
2023-03-17T04:27:46.807Z,101115.84
2023-03-17T04:30:13.593Z,101117.50
2023-03-17T04:32:40.029Z,101114.19
2023-03-17T04:35:06.432Z,101110.50
2023-03-17T04:37:34.602Z,101104.50
2023-03-17T04:40:01.060Z,101101.63
2023-03-17T04:42:27.780Z,101089.47
2023-03-17T04:44:54.354Z,101093.59
2023-03-17T04:47:20.729Z,101090.28
2023-03-17T04:49:47.101Z,101097.91
2023-03-17T04:52:13.556Z,101088.63
2023-03-17T04:54:39.951Z,101085.94
2023-03-17T04:57:06.468Z,101085.94
2023-03-17T04:59:33.315Z,101065.34
2023-03-17T05:01:59.772Z,101064.31
2023-03-17T05:04:31.551Z,101069.88
2023-03-17T05:06:59.182Z,101078.13
2023-03-17T05:09:25.570Z,101082.47
2023-03-17T05:11:51.935Z,101079.16
2023-03-17T05:14:18.498Z,101073.78
2023-03-17T05:16:44.918Z,101073.78
2023-03-17T05:19:11.234Z,101077.91
2023-03-17T05:21:37.600Z,101074.63
2023-03-17T05:24:03.986Z,101077.91
2023-03-17T05:26:30.435Z,101071.94
2023-03-17T05:28:57.138Z,101072.94
2023-03-17T05:31:23.818Z,101075.44
2023-03-17T05:33:50.135Z,101065.16
2023-03-17T05:36:17.215Z,101075.88
2023-03-17T05:38:43.619Z,101078.75
2023-03-17T05:41:09.958Z,101093.16
2023-03-17T05:43:36.292Z,101096.84
2023-03-17T05:46:02.700Z,101103.44
2023-03-17T05:48:29.573Z,101099.13
2023-03-17T05:50:56.130Z,101085.94
2023-03-17T05:53:22.859Z,101083.25
2023-03-17T05:55:49.287Z,101088.81
2023-03-17T05:58:15.799Z,101101.19
2023-03-17T06:00:42.191Z,101098.72
2023-03-17T06:03:08.669Z,101092.50
2023-03-17T06:05:35.464Z,101110.22
2023-03-17T06:08:02.052Z,101096.81
2023-03-17T06:10:28.461Z,101083.88
2023-03-17T06:12:55.035Z,101072.13
2023-03-17T06:15:21.570Z,101073.56
2023-03-17T06:17:47.976Z,101074.19
2023-03-17T06:20:14.581Z,101077.91
2023-03-17T06:22:51.650Z,101069.66
2023-03-17T06:25:26.867Z,101073.19
2023-03-17T06:27:53.398Z,101077.50
2023-03-17T06:30:20.026Z,101075.63
2023-03-17T06:32:46.464Z,101066.78
2023-03-17T06:35:12.768Z,101061.44
2023-03-17T06:37:39.163Z,101070.50
2023-03-17T06:40:05.596Z,101078.53
2023-03-17T06:42:31.931Z,101076.06
2023-03-17T06:44:58.326Z,101076.25
2023-03-17T06:47:26.037Z,101078.09
2023-03-17T06:49:52.585Z,101086.97
2023-03-17T06:52:19.551Z,101079.97
2023-03-17T06:54:45.912Z,101086.97
2023-03-17T06:57:12.282Z,101096.84
2023-03-17T06:59:39.250Z,101099.50
2023-03-17T07:02:05.763Z,101093.56
2023-03-17T07:04:32.187Z,101088.41
2023-03-17T07:06:58.548Z,101088.41
2023-03-17T07:09:24.915Z,101101.97
2023-03-17T07:11:51.874Z,101116.41
2023-03-17T07:14:18.562Z,101127.31
2023-03-17T07:16:45.282Z,101124.63
2023-03-17T07:19:12.156Z,101138.41
2023-03-17T07:21:38.852Z,101126.91
2023-03-17T07:24:05.263Z,101117.00
2023-03-17T07:26:31.657Z,101116.19
2023-03-17T07:28:58.324Z,101108.97
2023-03-17T07:31:25.064Z,101099.09
2023-03-17T07:33:51.492Z,101097.66
2023-03-17T07:36:18.289Z,101090.41
2023-03-17T07:38:44.669Z,101088.59
2023-03-17T07:41:11.150Z,101078.72
2023-03-17T07:43:37.570Z,101080.75
2023-03-17T07:46:06.315Z,101083.22
2023-03-17T07:48:32.940Z,101077.03
2023-03-17T07:50:59.846Z,101065.53
2023-03-17T07:53:26.899Z,101056.47
2023-03-17T07:55:53.199Z,101037.72
2023-03-17T07:58:20.236Z,101032.56
2023-03-17T08:00:47.030Z,101030.53
2023-03-17T08:03:14.015Z,101040.59
2023-03-17T08:05:40.623Z,101027.66
2023-03-17T08:08:07.237Z,101003.97
2023-03-17T08:10:34.081Z,100988.72
2023-03-17T08:13:00.914Z,100993.44
2023-03-17T08:15:28.287Z,100993.44
2023-03-17T08:17:54.614Z,100983.59
2023-03-17T08:20:21.324Z,100960.31
2023-03-17T08:22:48.049Z,100953.09
2023-03-17T08:25:14.408Z,100953.72
2023-03-17T08:27:40.741Z,100978.22
2023-03-17T08:30:07.265Z,100978.22
2023-03-17T08:32:33.659Z,100980.47
2023-03-17T08:35:00.108Z,100984.19
2023-03-17T08:37:27.234Z,100988.09
2023-03-17T08:39:53.641Z,100992.41
2023-03-17T08:42:20.260Z,101002.31
2023-03-17T08:44:47.025Z,101007.88
2023-03-17T08:47:13.608Z,101006.19
2023-03-17T08:49:39.893Z,101010.75
2023-03-17T08:52:07.222Z,101008.47
2023-03-17T08:54:33.525Z,101002.06
2023-03-17T08:56:59.861Z,101004.97
2023-03-17T08:59:26.677Z,100993.25
2023-03-17T09:01:53.762Z,100997.75
2023-03-17T09:04:20.710Z,101000.44
2023-03-17T09:07:02.419Z,100997.75
2023-03-17T09:09:30.022Z,101007.03
2023-03-17T09:11:56.536Z,101000.84
2023-03-17T09:14:23.658Z,101000.84
2023-03-17T09:16:50.127Z,101000.03
2023-03-17T09:19:17.215Z,100998.38
2023-03-17T09:21:43.502Z,100991.56
2023-03-17T09:24:09.859Z,100990.56
2023-03-17T09:26:36.170Z,100979.84
2023-03-17T09:29:04.677Z,100972.84
2023-03-17T09:31:31.082Z,100973.03
2023-03-17T09:33:57.487Z,100971.59
2023-03-17T09:36:23.915Z,100972.41
2023-03-17T09:38:50.284Z,100967.03
2023-03-17T09:41:16.962Z,100971.59
2023-03-17T09:43:43.296Z,100964.38
2023-03-17T09:46:09.690Z,100962.72
2023-03-17T09:48:36.041Z,100959.41
2023-03-17T09:51:02.626Z,100955.09
2023-03-17T09:53:29.607Z,100954.28
2023-03-17T09:55:56.044Z,100949.75
2023-03-17T09:58:22.822Z,100953.47
2023-03-17T10:00:49.429Z,100948.72
2023-03-17T10:03:15.786Z,100944.41
2023-03-17T10:05:42.732Z,100938.44
2023-03-17T10:08:26.929Z,100945.44
2023-03-17T10:10:56.128Z,100941.94
2023-03-17T10:13:22.439Z,100932.47
2023-03-17T10:15:49.130Z,100931.41
2023-03-17T10:18:15.722Z,100932.47
2023-03-17T10:20:42.155Z,100938.66
2023-03-17T10:23:08.845Z,100946.03
2023-03-17T10:25:35.389Z,100942.34
2023-03-17T10:28:01.754Z,100939.25
2023-03-17T10:30:28.536Z,100928.75
2023-03-17T10:32:55.016Z,100923.41
2023-03-17T10:35:21.707Z,100911.06
2023-03-17T10:37:48.073Z,100904.91
2023-03-17T10:40:14.466Z,100915.81
2023-03-17T10:42:41.149Z,100920.13
2023-03-17T10:45:07.779Z,100912.50
2023-03-17T10:47:34.419Z,100913.13
2023-03-17T10:50:01.257Z,100915.81
2023-03-17T10:52:27.920Z,100917.84
2023-03-17T10:54:54.246Z,100916.00
2023-03-17T10:57:20.769Z,100913.31
2023-03-17T10:59:47.539Z,100911.69
2023-03-17T11:02:13.883Z,100900.34
2023-03-17T11:04:40.710Z,100913.94
2023-03-17T11:07:07.438Z,100893.56
2023-03-17T11:09:33.843Z,100911.25
2023-03-17T11:12:00.216Z,100905.50
2023-03-17T11:14:26.718Z,100904.66
2023-03-17T11:16:53.681Z,100908.19
2023-03-17T11:19:20.344Z,100910.84
2023-03-17T11:21:47.392Z,100898.31
2023-03-17T11:24:13.758Z,100910.25
2023-03-17T11:26:40.291Z,100894.59
2023-03-17T11:29:06.859Z,100889.44
2023-03-17T11:31:33.292Z,100878.16
2023-03-17T11:33:59.720Z,100886.97
2023-03-17T11:36:26.077Z,100884.50
2023-03-17T11:38:52.959Z,100882.88
2023-03-17T11:41:19.928Z,100872.56
2023-03-17T11:43:46.255Z,100868.25
2023-03-17T11:46:12.810Z,100870.31
2023-03-17T11:48:39.722Z,100866.59
2023-03-17T11:51:06.144Z,100853.25
2023-03-17T11:53:32.476Z,100849.53
2023-03-17T11:55:58.859Z,100845.22
2023-03-17T11:58:25.230Z,100846.25
2023-03-17T12:00:52.182Z,100842.53
2023-03-17T12:03:18.788Z,100838.22
2023-03-17T12:05:45.147Z,100836.16
2023-03-17T12:08:11.479Z,100845.41
2023-03-17T12:10:38.438Z,100838.63
2023-03-17T12:13:04.835Z,100840.47
2023-03-17T12:15:31.874Z,100840.69
2023-03-17T12:17:58.252Z,100843.97
2023-03-17T12:20:25.463Z,100839.88
2023-03-17T12:22:52.584Z,100836.16
2023-03-17T12:25:19.128Z,100835.34
2023-03-17T12:27:45.941Z,100835.34
2023-03-17T12:30:12.262Z,100844.56
2023-03-17T12:32:39.734Z,100845.22
2023-03-17T12:35:06.222Z,100842.75
2023-03-17T12:37:33.200Z,100839.47
2023-03-17T12:39:59.564Z,100835.75
2023-03-17T12:42:26.060Z,100831.44
2023-03-17T12:44:52.794Z,100834.13
2023-03-17T12:47:19.054Z,100831.44
2023-03-17T12:49:45.429Z,100826.09
2023-03-17T12:52:12.507Z,100817.22
2023-03-17T12:54:39.342Z,100815.41
2023-03-17T12:57:05.687Z,100811.06
2023-03-17T12:59:32.077Z,100805.69
2023-03-17T13:01:58.718Z,100804.69
2023-03-17T13:04:27.126Z,100814.56
2023-03-17T13:06:54.170Z,100816.41
2023-03-17T13:09:20.865Z,100806.53
2023-03-17T13:11:47.186Z,100799.56
2023-03-17T13:14:13.476Z,100809.41
2023-03-17T13:16:40.265Z,100806.75
2023-03-17T13:19:07.265Z,100803.88
2023-03-17T13:21:36.204Z,100800.56
2023-03-17T13:24:02.678Z,100806.13
2023-03-17T13:26:29.228Z,100806.94
2023-03-17T13:28:55.789Z,100803.22
2023-03-17T13:31:22.973Z,100792.53
2023-03-17T13:33:49.361Z,100799.56
2023-03-17T13:36:15.959Z,100803.22
2023-03-17T13:38:42.430Z,100794.41
2023-03-17T13:41:08.781Z,100796.25
2023-03-17T13:43:35.090Z,100788.22
2023-03-17T13:46:01.367Z,100782.88
2023-03-17T13:48:28.068Z,100790.09
2023-03-17T13:50:54.447Z,100777.72
2023-03-17T13:53:21.123Z,100779.41
2023-03-17T13:55:47.645Z,100774.84
2023-03-17T13:58:14.032Z,100775.88
2023-03-17T14:00:40.939Z,100772.38
2023-03-17T14:03:07.887Z,100769.50
2023-03-17T14:05:34.440Z,100768.69
2023-03-17T14:08:01.490Z,100762.53
2023-03-17T14:10:27.825Z,100758.00
2023-03-17T14:12:54.828Z,100759.84
2023-03-17T14:15:21.345Z,100752.66
2023-03-17T14:17:48.007Z,100747.31
2023-03-17T14:20:14.774Z,100741.13
2023-03-17T14:22:43.805Z,100740.28
2023-03-17T14:25:11.563Z,100741.97
2023-03-17T14:27:38.438Z,100732.28
2023-03-17T14:30:05.182Z,100728.59
2023-03-17T14:32:31.502Z,100723.25
2023-03-17T14:34:58.378Z,100728.59
2023-03-17T14:37:25.140Z,100728.59
2023-03-17T14:39:51.498Z,100727.75
2023-03-17T14:42:17.815Z,100719.75
2023-03-17T14:44:44.707Z,100716.84
2023-03-17T14:47:12.214Z,100710.88
2023-03-17T14:49:38.582Z,100708.22
2023-03-17T14:52:05.033Z,100708.22
2023-03-17T14:54:31.700Z,100706.38
2023-03-17T14:56:58.132Z,100709.88
2023-03-17T14:59:24.509Z,100706.16
2023-03-17T15:01:50.915Z,100702.47
2023-03-17T15:04:17.523Z,100696.06
2023-03-17T15:06:44.314Z,100695.06
2023-03-17T15:09:10.928Z,100690.13
2023-03-17T15:11:37.326Z,100692.38
2023-03-17T15:14:03.792Z,100686.19
2023-03-17T15:16:30.576Z,100689.91
2023-03-17T15:18:57.044Z,100694.81
2023-03-17T15:21:23.603Z,100688.03
2023-03-17T15:23:49.948Z,100684.56
2023-03-17T15:26:16.264Z,100681.06
2023-03-17T15:28:43.056Z,100674.69
2023-03-17T15:31:09.463Z,100670.38
2023-03-17T15:33:36.673Z,100681.06
2023-03-17T15:36:03.075Z,100685.81
2023-03-17T15:38:29.534Z,100683.13
2023-03-17T15:40:55.950Z,100685.19
2023-03-17T15:43:22.461Z,100687.84
2023-03-17T15:45:49.015Z,100675.31
2023-03-17T15:48:15.701Z,100684.16
2023-03-17T15:50:42.233Z,100681.47
2023-03-17T15:53:08.617Z,100686.00
2023-03-17T15:55:35.587Z,100682.50
2023-03-17T15:58:02.170Z,100676.34
2023-03-17T16:00:28.619Z,100678.78
2023-03-17T16:02:54.952Z,100669.13
2023-03-17T16:05:21.434Z,100673.69
2023-03-17T16:07:47.792Z,100673.69
2023-03-17T16:10:14.736Z,100671.22
2023-03-17T16:12:41.025Z,100665.88
2023-03-17T16:15:21.860Z,100672.84
2023-03-17T16:17:49.493Z,100663.19
2023-03-17T16:20:15.848Z,100667.72
2023-03-17T16:22:42.249Z,100671.41
2023-03-17T16:25:08.520Z,100673.47
2023-03-17T16:27:34.899Z,100674.09
2023-03-17T16:30:01.213Z,100682.31
2023-03-17T16:32:28.241Z,100675.13
2023-03-17T16:34:55.061Z,100674.91
2023-03-17T16:37:21.622Z,100666.88
2023-03-17T16:39:48.035Z,100675.53
2023-03-17T16:42:14.661Z,100667.91
2023-03-17T16:44:42.146Z,100675.13
2023-03-17T16:47:09.007Z,100680.47
2023-03-17T16:49:35.352Z,100682.09
2023-03-17T16:52:01.703Z,100678.19
2023-03-17T16:54:28.033Z,100687.63
2023-03-17T16:56:54.585Z,100676.94
2023-03-17T16:59:21.102Z,100681.25
2023-03-17T17:01:47.741Z,100681.25
2023-03-17T17:04:14.115Z,100681.03
2023-03-17T17:06:41.169Z,100679.00
2023-03-17T17:09:07.781Z,100679.22
2023-03-17T17:11:34.473Z,100683.50
2023-03-17T17:14:00.853Z,100681.88
2023-03-17T17:16:27.590Z,100673.84
2023-03-17T17:18:54.388Z,100670.34
2023-03-17T17:21:20.729Z,100671.19
2023-03-17T17:23:47.076Z,100674.91
2023-03-17T17:26:13.512Z,100678.38
2023-03-17T17:28:40.335Z,100669.56
2023-03-17T17:31:07.535Z,100671.19
2023-03-17T17:33:33.932Z,100682.69
2023-03-17T17:36:00.383Z,100682.91
2023-03-17T17:38:26.788Z,100677.56
2023-03-17T17:40:53.127Z,100686.59
2023-03-17T17:43:19.641Z,100682.91
2023-03-17T17:45:46.011Z,100687.22
2023-03-17T17:48:12.275Z,100685.78
2023-03-17T17:50:38.628Z,100691.75
2023-03-17T17:53:05.678Z,100683.94
2023-03-17T17:55:32.075Z,100684.75
2023-03-17T17:57:58.848Z,100686.41
2023-03-17T18:00:25.152Z,100681.88
2023-03-17T18:02:51.654Z,100683.72
2023-03-17T18:05:18.016Z,100683.50
2023-03-17T18:07:44.444Z,100685.16
2023-03-17T18:10:11.344Z,100685.34
2023-03-17T18:12:38.048Z,100682.69
2023-03-17T18:15:04.568Z,100674.91
2023-03-17T18:17:32.583Z,100673.66
2023-03-17T18:19:59.337Z,100675.69
2023-03-17T18:22:26.177Z,100681.03
2023-03-17T18:24:52.551Z,100674.06
2023-03-17T18:27:19.124Z,100664.19
2023-03-17T18:29:45.672Z,100660.06
2023-03-17T18:32:12.879Z,100656.38
2023-03-17T18:34:40.024Z,100650.00
2023-03-17T18:37:07.144Z,100656.38
2023-03-17T18:39:33.439Z,100654.50
2023-03-17T18:41:59.823Z,100649.16
2023-03-17T18:44:26.171Z,100659.84
2023-03-17T18:46:52.657Z,100643.00
2023-03-17T18:49:18.971Z,100642.19
2023-03-17T18:51:45.581Z,100630.44
2023-03-17T18:54:12.100Z,100637.22
2023-03-17T18:56:38.693Z,100635.78
2023-03-17T18:59:05.159Z,100632.09
2023-03-17T19:01:31.630Z,100635.78
2023-03-17T19:03:57.981Z,100636.81
2023-03-17T19:06:24.804Z,100633.31
2023-03-17T19:08:51.316Z,100637.88
2023-03-17T19:11:17.937Z,100641.34
2023-03-17T19:13:44.375Z,100634.16
2023-03-17T19:16:10.939Z,100628.81
2023-03-17T19:18:37.500Z,100634.38
2023-03-17T19:21:04.120Z,100637.47
2023-03-17T19:23:30.566Z,100639.50
2023-03-17T19:25:57.491Z,100636.22
2023-03-17T19:28:23.848Z,100632.72
2023-03-17T19:30:50.574Z,100629.22
2023-03-17T19:33:17.163Z,100625.75
2023-03-17T19:35:43.954Z,100624.69
2023-03-17T19:38:10.371Z,100632.53
2023-03-17T19:40:36.965Z,100626.34
2023-03-17T19:43:04.298Z,100623.06
2023-03-17T19:45:30.755Z,100621.81
2023-03-17T19:47:57.163Z,100615.84
2023-03-17T19:50:23.562Z,100615.66
2023-03-17T19:52:50.121Z,100617.50
2023-03-17T19:55:16.534Z,100612.75
2023-03-17T19:57:42.965Z,100616.69
2023-03-17T20:00:09.263Z,100621.19
2023-03-17T20:02:35.754Z,100625.53
2023-03-17T20:05:02.440Z,100619.34
2023-03-17T20:07:28.993Z,100618.53
2023-03-17T20:09:55.391Z,100616.88
2023-03-17T20:12:21.746Z,100622.03
2023-03-17T20:14:49.135Z,100617.72
2023-03-17T20:17:15.529Z,100613.16
2023-03-17T20:19:42.166Z,100607.81
2023-03-17T20:22:08.947Z,100604.56
2023-03-17T20:24:35.295Z,100603.50
2023-03-17T20:27:01.678Z,100608.28
2023-03-17T20:29:28.108Z,100612.59
2023-03-17T20:31:54.684Z,100612.38
2023-03-17T20:34:20.986Z,100623.06
2023-03-17T20:36:47.819Z,100608.03
2023-03-17T20:39:14.149Z,100609.06
2023-03-17T20:41:40.601Z,100624.31
2023-03-17T20:44:07.536Z,100616.28
2023-03-17T20:46:34.358Z,100616.28
2023-03-17T20:49:00.788Z,100623.47
2023-03-17T20:51:27.091Z,100618.13
2023-03-17T20:53:53.504Z,100621.63
2023-03-17T20:56:19.939Z,100628.00
2023-03-17T20:58:46.323Z,100616.28
2023-03-17T21:01:13.125Z,100611.16
2023-03-17T21:03:39.528Z,100613.63
2023-03-17T21:06:05.934Z,100602.28
2023-03-17T21:08:32.290Z,100608.28
2023-03-17T21:10:59.305Z,100597.56
2023-03-17T21:13:26.080Z,100604.16
2023-03-17T21:15:53.199Z,100599.63
2023-03-17T21:18:20.247Z,100608.69
2023-03-17T21:20:46.648Z,100604.97
2023-03-17T21:23:13.373Z,100601.69
2023-03-17T21:25:39.910Z,100607.84
2023-03-17T21:28:06.951Z,100608.88
2023-03-17T21:30:33.500Z,100612.19
2023-03-17T21:33:00.103Z,100605.19
2023-03-17T21:35:27.045Z,100602.72
2023-03-17T21:37:53.576Z,100603.34
2023-03-17T21:40:19.937Z,100610.53
2023-03-17T21:42:46.289Z,100612.41
2023-03-17T21:45:13.183Z,100613.19
2023-03-17T21:47:39.927Z,100615.06
2023-03-17T21:50:06.498Z,100614.03
2023-03-17T21:52:33.098Z,100605.81
2023-03-17T21:54:59.889Z,100607.84
2023-03-17T21:57:26.829Z,100607.03
2023-03-17T21:59:53.764Z,100611.56
2023-03-17T22:02:20.105Z,100609.72
2023-03-17T22:04:46.478Z,100608.06
2023-03-17T22:07:12.870Z,100612.59
2023-03-17T22:09:39.551Z,100616.06
2023-03-17T22:12:06.439Z,100613.41
2023-03-17T22:14:32.761Z,100612.41
2023-03-17T22:16:59.567Z,100614.44
2023-03-17T22:19:26.000Z,100613.41
2023-03-17T22:21:52.350Z,100611.75
2023-03-17T22:24:18.648Z,100610.72
2023-03-17T22:26:45.478Z,100618.16
2023-03-17T22:29:11.935Z,100614.44
2023-03-17T22:31:38.775Z,100618.97
2023-03-17T22:34:05.575Z,100621.66
2023-03-17T22:36:32.044Z,100617.13
2023-03-17T22:38:58.520Z,100622.66
2023-03-17T22:41:24.961Z,100612.81
2023-03-17T22:43:51.382Z,100608.28
2023-03-17T22:46:17.886Z,100611.97
2023-03-17T22:48:44.822Z,100603.16
2023-03-17T22:51:11.614Z,100596.75
2023-03-17T22:53:38.255Z,100588.75
2023-03-17T22:56:04.537Z,100583.59
2023-03-17T22:58:31.363Z,100582.81
2023-03-17T23:00:57.786Z,100590.59
2023-03-17T23:03:24.994Z,100582.81
2023-03-17T23:05:51.737Z,100579.88
2023-03-17T23:08:18.158Z,100576.63
2023-03-17T23:10:44.964Z,100574.97
2023-03-17T23:13:11.573Z,100586.47
2023-03-17T23:15:37.919Z,100596.16
2023-03-17T23:18:04.547Z,100584.63
2023-03-17T23:20:31.863Z,100588.34
2023-03-17T23:22:58.740Z,100583.81
2023-03-17T23:25:25.122Z,100581.13
2023-03-17T23:27:51.502Z,100579.50
2023-03-17T23:30:18.190Z,100571.47
2023-03-17T23:32:44.796Z,100581.13
2023-03-17T23:35:11.356Z,100586.69
2023-03-17T23:37:37.808Z,100574.97
2023-03-17T23:40:04.317Z,100581.34
2023-03-17T23:42:31.423Z,100583.00
2023-03-17T23:44:57.806Z,100572.53
2023-03-17T23:47:24.184Z,100569.63
2023-03-17T23:49:50.549Z,100580.34
2023-03-17T23:52:16.894Z,100581.34
2023-03-17T23:54:43.202Z,100576.81
2023-03-17T23:57:09.578Z,100576.00
2023-03-17T23:59:35.956Z,100579.50
